createdAt,value
2019-02-28T00:00:43.379Z,6.77
2019-02-28T00:03:50.632Z,7.07
2019-02-28T00:06:58.201Z,8.37
2019-02-28T00:10:05.928Z,7.70
2019-02-28T00:13:13.448Z,8.33
2019-02-28T00:16:21.351Z,8.43
2019-02-28T00:19:28.412Z,8.10
2019-02-28T00:22:35.633Z,7.80
2019-02-28T00:25:42.951Z,8.40
2019-02-28T00:28:50.092Z,7.87
2019-02-28T00:32:07.599Z,9.43
2019-02-28T00:35:14.804Z,8.10
2019-02-28T00:38:22.041Z,8.17
2019-02-28T00:41:42.968Z,9.37
2019-02-28T00:44:57.157Z,8.23
2019-02-28T00:48:04.457Z,10.60
2019-02-28T00:51:21.094Z,7.13
2019-02-28T00:54:28.400Z,9.17
2019-02-28T00:57:35.544Z,8.77
2019-02-28T01:00:52.325Z,9.83
2019-02-28T01:03:59.888Z,9.33
2019-02-28T01:07:17.005Z,7.57
2019-02-28T01:10:24.407Z,9.10
2019-02-28T01:13:31.553Z,7.23
2019-02-28T01:16:38.886Z,10.80
2019-02-28T01:19:46.123Z,10.77
2019-02-28T01:22:53.374Z,9.23
2019-02-28T01:26:00.608Z,8.60
2019-02-28T01:29:07.895Z,9.30
2019-02-28T01:32:16.310Z,10.17
2019-02-28T01:35:23.522Z,7.97
2019-02-28T01:38:30.809Z,9.10
2019-02-28T01:41:37.942Z,8.73
2019-02-28T01:44:45.266Z,9.93
2019-02-28T01:47:52.479Z,10.77
2019-02-28T01:51:00.822Z,8.40
2019-02-28T01:54:08.882Z,9.43
2019-02-28T01:57:16.028Z,8.73
2019-02-28T02:00:24.436Z,10.93
2019-02-28T02:03:31.705Z,10.43
2019-02-28T02:06:38.975Z,8.73
2019-02-28T02:09:56.511Z,9.57
2019-02-28T02:13:17.210Z,10.13
2019-02-28T02:16:27.714Z,9.43
2019-02-28T02:19:33.257Z,9.57
2019-02-28T02:22:50.110Z,10.07
2019-02-28T02:26:08.414Z,9.37
2019-02-28T02:29:25.055Z,11.07
2019-02-28T02:32:37.500Z,10.10
2019-02-28T02:35:50.676Z,10.17
2019-02-28T02:39:07.475Z,8.40
2019-02-28T02:42:14.632Z,8.10
2019-02-28T02:45:21.775Z,10.73
2019-02-28T02:48:42.314Z,9.37
2019-02-28T02:51:56.926Z,11.47
2019-02-28T02:55:14.246Z,9.57
2019-02-28T02:58:31.009Z,11.83
2019-02-28T03:01:47.217Z,11.83
2019-02-28T03:04:57.811Z,12.13
2019-02-28T03:08:03.197Z,10.37
2019-02-28T03:11:10.538Z,9.67
2019-02-28T03:14:17.849Z,10.53
2019-02-28T03:17:34.461Z,12.20
2019-02-28T03:20:42.491Z,10.93
2019-02-28T03:23:49.834Z,8.80
2019-02-28T03:26:56.988Z,10.53
2019-02-28T03:30:05.049Z,11.27
2019-02-28T03:33:27.322Z,9.97
2019-02-28T03:36:30.397Z,8.37
2019-02-28T03:39:37.947Z,10.37
2019-02-28T03:42:54.339Z,12.00
2019-02-28T03:46:01.484Z,11.40
2019-02-28T03:49:11.477Z,10.63
2019-02-28T03:52:27.172Z,10.17
2019-02-28T03:55:40.310Z,11.10
2019-02-28T03:58:52.813Z,10.73
2019-02-28T04:02:09.521Z,10.57
2019-02-28T04:05:28.075Z,10.30
2019-02-28T04:08:44.584Z,9.20
2019-02-28T04:11:51.829Z,8.23
2019-02-28T04:14:59.039Z,9.90
2019-02-28T04:18:07.721Z,10.87
2019-02-28T04:21:24.556Z,11.27
2019-02-28T04:24:31.743Z,9.93
2019-02-28T04:27:40.485Z,10.00
2019-02-28T04:30:57.417Z,10.67
2019-02-28T04:34:04.597Z,10.17
2019-02-28T04:37:11.758Z,10.30
2019-02-28T04:40:19.077Z,11.27
2019-02-28T04:43:35.815Z,10.07
2019-02-28T04:46:52.542Z,9.57
2019-02-28T04:50:09.335Z,10.53
2019-02-28T04:53:18.970Z,10.17
2019-02-28T04:56:23.721Z,10.13
2019-02-28T04:59:31.601Z,8.27
2019-02-28T05:02:39.833Z,9.30
2019-02-28T05:05:56.399Z,8.07
2019-02-28T05:09:05.376Z,8.70
2019-02-28T05:12:21.977Z,10.00
2019-02-28T05:15:29.115Z,9.00
2019-02-28T05:18:36.246Z,8.27
2019-02-28T05:21:43.656Z,8.17
2019-02-28T05:25:00.379Z,8.60
2019-02-28T05:28:07.896Z,10.10
2019-02-28T05:31:27.086Z,9.47
2019-02-28T05:34:33.430Z,10.63
2019-02-28T05:37:50.123Z,11.10
2019-02-28T05:41:06.710Z,9.93
2019-02-28T05:44:14.043Z,9.93
2019-02-28T05:47:21.164Z,6.40
2019-02-28T05:50:28.381Z,7.97
2019-02-28T05:53:45.161Z,9.83
2019-02-28T05:56:52.345Z,11.03
2019-02-28T06:00:01.794Z,9.77
2019-02-28T06:03:20.057Z,11.10
2019-02-28T06:06:36.651Z,9.70
2019-02-28T06:09:45.521Z,12.10
2019-02-28T06:12:52.656Z,10.57
2019-02-28T06:16:12.346Z,11.30
2019-02-28T06:19:27.706Z,9.73
2019-02-28T06:22:36.312Z,11.50
2019-02-28T06:25:43.578Z,10.13
2019-02-28T06:28:50.830Z,10.73
2019-02-28T06:31:58.208Z,10.90
2019-02-28T06:35:05.893Z,10.20
2019-02-28T06:38:13.199Z,8.53
2019-02-28T06:41:20.444Z,10.40
2019-02-28T06:44:27.832Z,11.17
2019-02-28T06:47:35.083Z,10.93
2019-02-28T06:50:44.682Z,11.63
2019-02-28T06:53:51.298Z,10.87
2019-02-28T06:56:58.542Z,12.23
2019-02-28T07:00:06.653Z,11.07
2019-02-28T07:03:22.881Z,12.03
2019-02-28T07:06:30.132Z,10.57
2019-02-28T07:09:38.258Z,11.17
2019-02-28T07:12:45.473Z,11.67
2019-02-28T07:15:55.571Z,10.50
2019-02-28T07:19:01.840Z,8.00
2019-02-28T07:22:09.053Z,10.53
2019-02-28T07:25:16.287Z,11.67
2019-02-28T07:28:23.650Z,9.77
2019-02-28T07:31:30.894Z,13.63
2019-02-28T07:34:38.088Z,11.93
2019-02-28T07:37:45.406Z,12.77
2019-02-28T07:41:02.127Z,10.90
2019-02-28T07:44:22.253Z,10.17
2019-02-28T07:47:27.744Z,11.63
2019-02-28T07:50:34.928Z,11.77
2019-02-28T07:53:42.348Z,10.47
2019-02-28T07:56:58.793Z,10.20
2019-02-28T08:00:08.905Z,13.07
2019-02-28T08:03:16.187Z,12.73
2019-02-28T08:06:23.418Z,10.93
2019-02-28T08:09:31.378Z,12.07
2019-02-28T08:12:38.748Z,12.30
2019-02-28T08:15:45.894Z,11.30
2019-02-28T08:18:53.559Z,12.33
2019-02-28T08:22:00.864Z,8.60
2019-02-28T08:25:09.302Z,12.03
2019-02-28T08:28:16.599Z,10.17
2019-02-28T08:31:23.850Z,7.40
2019-02-28T08:34:31.070Z,8.87
2019-02-28T08:37:38.322Z,11.03
2019-02-28T08:40:50.600Z,9.37
2019-02-28T08:44:04.543Z,10.70
2019-02-28T08:47:21.886Z,8.67
2019-02-28T08:50:29.085Z,6.77
2019-02-28T08:53:36.317Z,7.30
2019-02-28T08:56:49.100Z,9.27
2019-02-28T08:59:55.848Z,9.70
2019-02-28T09:03:01.573Z,9.53
2019-02-28T09:06:08.697Z,8.40
2019-02-28T09:09:16.088Z,8.87
2019-02-28T09:12:23.576Z,10.07
2019-02-28T09:15:31.360Z,8.47
2019-02-28T09:18:38.618Z,9.30
2019-02-28T09:21:46.053Z,8.80
2019-02-28T09:24:53.399Z,8.80
2019-02-28T09:28:00.549Z,8.87
2019-02-28T09:31:07.856Z,8.07
2019-02-28T09:34:13.948Z,6.80
2019-02-28T09:37:21.105Z,7.30
2019-02-28T09:40:29.670Z,7.77
2019-02-28T09:43:37.275Z,6.87
2019-02-28T09:46:54.021Z,7.83
2019-02-28T09:50:13.286Z,6.17
2019-02-28T09:53:20.501Z,8.10
2019-02-28T09:56:27.730Z,8.23
2019-02-28T09:59:37.826Z,6.63
2019-02-28T10:02:45.151Z,8.90
2019-02-28T10:05:52.525Z,7.67
2019-02-28T10:09:09.959Z,7.67
2019-02-28T10:12:17.112Z,7.73
2019-02-28T10:15:24.421Z,6.50
2019-02-28T10:18:41.049Z,6.80
2019-02-28T10:21:52.096Z,10.07
2019-02-28T10:25:07.180Z,8.03
2019-02-28T10:28:23.515Z,6.23
2019-02-28T10:31:36.174Z,7.43
2019-02-28T10:34:37.939Z,5.63
2019-02-28T10:37:58.415Z,6.10
2019-02-28T10:41:13.023Z,7.13
2019-02-28T10:44:20.263Z,6.67
2019-02-28T10:47:29.589Z,5.83
2019-02-28T10:50:45.862Z,6.77
2019-02-28T10:54:02.558Z,7.77
2019-02-28T10:57:09.872Z,5.83
2019-02-28T11:00:32.240Z,6.03
2019-02-28T11:03:38.146Z,5.37
2019-02-28T11:06:46.812Z,4.70
2019-02-28T11:09:55.557Z,4.77
2019-02-28T11:13:14.074Z,4.23
2019-02-28T11:16:23.569Z,4.47
2019-02-28T11:19:30.125Z,5.00
2019-02-28T11:22:39.959Z,5.87
2019-02-28T11:25:46.189Z,5.40
2019-02-28T11:28:53.653Z,4.13
2019-02-28T11:32:00.291Z,4.10
2019-02-28T11:35:08.050Z,5.90
2019-02-28T11:38:20.506Z,5.37
2019-02-28T11:41:33.677Z,4.93
2019-02-28T11:44:43.481Z,2.93
2019-02-28T11:48:00.499Z,4.47
2019-02-28T11:51:07.638Z,5.07
2019-02-28T11:54:14.856Z,2.57
2019-02-28T11:57:22.014Z,4.17
2019-02-28T12:00:32.500Z,3.53
2019-02-28T12:03:39.222Z,3.33
2019-02-28T12:06:46.454Z,3.57
2019-02-28T12:09:54.712Z,4.70
2019-02-28T12:13:02.628Z,3.20
2019-02-28T12:16:10.031Z,2.70
2019-02-28T12:19:17.340Z,3.77
2019-02-28T12:22:24.658Z,4.50
2019-02-28T12:25:31.888Z,2.20
2019-02-28T12:28:39.248Z,2.50
2019-02-28T12:31:46.401Z,2.40
2019-02-28T12:34:52.487Z,3.43
2019-02-28T12:38:08.899Z,2.83
2019-02-28T12:41:26.284Z,3.37
2019-02-28T12:44:33.668Z,3.53
2019-02-28T12:47:41.606Z,3.00
2019-02-28T12:50:49.513Z,2.33
2019-02-28T12:53:59.222Z,4.33
2019-02-28T12:57:06.171Z,2.77
2019-02-28T13:00:16.052Z,3.90
2019-02-28T13:03:23.205Z,3.43
2019-02-28T13:06:30.336Z,4.40
2019-02-28T13:09:37.730Z,3.87
2019-02-28T13:12:48.916Z,3.53
2019-02-28T13:15:54.460Z,3.40
2019-02-28T13:19:11.169Z,2.77
2019-02-28T13:22:18.896Z,3.63
2019-02-28T13:25:36.795Z,2.70
2019-02-28T13:28:43.998Z,3.10
2019-02-28T13:32:01.411Z,2.70
2019-02-28T13:35:11.887Z,3.53
2019-02-28T13:38:19.939Z,3.83
2019-02-28T13:41:27.469Z,3.43
2019-02-28T13:44:36.382Z,4.63
2019-02-28T13:47:46.309Z,3.70
2019-02-28T13:50:53.663Z,3.20
2019-02-28T13:54:10.706Z,3.93
2019-02-28T13:57:27.286Z,3.57
2019-02-28T14:00:34.536Z,3.23
2019-02-28T14:03:46.019Z,3.70
2019-02-28T14:06:52.515Z,3.80
2019-02-28T14:10:00.329Z,2.13
2019-02-28T14:13:07.821Z,2.63
2019-02-28T14:16:15.105Z,3.03
2019-02-28T14:19:22.308Z,2.87
2019-02-28T14:22:29.447Z,1.73
2019-02-28T14:25:39.836Z,2.23
2019-02-28T14:28:45.612Z,2.33
2019-02-28T14:31:52.804Z,2.80
2019-02-28T14:35:00.816Z,2.77
2019-02-28T14:38:08.335Z,3.13
2019-02-28T14:41:15.571Z,2.10
2019-02-28T14:44:21.725Z,3.63
2019-02-28T14:47:29.544Z,3.77
2019-02-28T14:50:36.771Z,3.43
2019-02-28T14:53:45.403Z,4.30
2019-02-28T14:56:52.982Z,3.57
2019-02-28T15:00:06.104Z,4.17
2019-02-28T15:03:09.511Z,3.43
2019-02-28T15:06:16.653Z,4.87
2019-02-28T15:09:24.235Z,3.63
2019-02-28T15:12:33.004Z,2.77
2019-02-28T15:15:40.149Z,3.17
2019-02-28T15:18:51.033Z,2.33
2019-02-28T15:22:05.818Z,3.33
2019-02-28T15:25:22.577Z,1.53
2019-02-28T15:28:29.700Z,2.60
2019-02-28T15:31:36.910Z,2.60
2019-02-28T15:34:44.137Z,3.50
2019-02-28T15:38:00.889Z,2.40
2019-02-28T15:41:18.570Z,2.17
2019-02-28T15:44:29.315Z,2.33
2019-02-28T15:47:35.279Z,2.40
2019-02-28T15:50:42.585Z,2.50
2019-02-28T15:53:59.429Z,3.10
2019-02-28T15:57:16.269Z,1.33
2019-02-28T16:00:33.243Z,3.90
2019-02-28T16:03:51.289Z,1.90
2019-02-28T16:07:08.160Z,2.57
2019-02-28T16:10:20.124Z,1.70
2019-02-28T16:13:27.255Z,1.87
2019-02-28T16:16:34.659Z,2.17
2019-02-28T16:19:53.201Z,2.03
2019-02-28T16:23:09.785Z,1.00
2019-02-28T16:26:27.765Z,1.00
2019-02-28T16:29:34.995Z,1.67
2019-02-28T16:32:42.255Z,1.87
2019-02-28T16:35:50.261Z,2.33
2019-02-28T16:38:58.454Z,2.10
2019-02-28T16:42:08.276Z,1.77
2019-02-28T16:45:32.484Z,1.17
2019-02-28T16:48:52.718Z,1.80
2019-02-28T16:52:09.517Z,1.17
2019-02-28T16:55:27.432Z,1.40
2019-02-28T16:58:34.951Z,1.60
2019-02-28T17:01:42.651Z,2.23
2019-02-28T17:04:51.954Z,1.77
2019-02-28T17:07:58.871Z,2.03
2019-02-28T17:11:06.079Z,1.27
2019-02-28T17:14:16.664Z,1.40
2019-02-28T17:17:43.557Z,1.70
2019-02-28T17:20:52.193Z,1.70
2019-02-28T17:23:59.514Z,1.27
2019-02-28T17:27:24.984Z,2.30
2019-02-28T17:31:23.298Z,1.20
2019-02-28T17:34:30.631Z,2.87
2019-02-28T17:37:37.761Z,1.53
2019-02-28T17:40:44.931Z,1.33
2019-02-28T17:44:39.638Z,1.60
2019-02-28T17:48:36.489Z,1.37
2019-02-28T17:52:01.931Z,1.97
2019-02-28T17:55:52.708Z,1.37
2019-02-28T17:59:39.053Z,0.83
2019-02-28T18:03:17.823Z,1.40
2019-02-28T18:06:37.132Z,1.17
2019-02-28T18:10:02.157Z,1.07
2019-02-28T18:13:55.045Z,1.13
2019-02-28T18:17:38.053Z,1.57
2019-02-28T18:21:22.641Z,1.37
2019-02-28T18:25:00.242Z,1.27
2019-02-28T18:28:41.680Z,1.60
2019-02-28T18:31:48.935Z,1.10
2019-02-28T18:34:56.351Z,1.53
2019-02-28T18:38:04.304Z,1.80
2019-02-28T18:41:21.058Z,2.87
2019-02-28T18:44:28.286Z,1.80
2019-02-28T18:47:45.030Z,2.60
2019-02-28T18:51:01.778Z,1.97
2019-02-28T18:54:09.065Z,1.87
2019-02-28T18:57:16.315Z,2.50
2019-02-28T19:00:33.182Z,2.20
2019-02-28T19:03:49.999Z,1.73
2019-02-28T19:07:06.729Z,1.53
2019-02-28T19:10:23.643Z,1.23
2019-02-28T19:13:40.483Z,1.77
2019-02-28T19:16:57.068Z,1.77
2019-02-28T19:20:14.187Z,0.93
2019-02-28T19:23:21.802Z,2.47
2019-02-28T19:26:29.224Z,1.40
2019-02-28T19:29:37.011Z,2.10
2019-02-28T19:32:53.663Z,1.43
2019-02-28T19:36:10.430Z,1.90
2019-02-28T19:39:27.174Z,1.77
2019-02-28T19:42:44.017Z,1.97
2019-02-28T19:45:50.664Z,1.10
2019-02-28T19:48:57.860Z,2.03
2019-02-28T19:52:05.268Z,2.03
2019-02-28T19:55:12.984Z,1.40
2019-02-28T19:58:29.549Z,1.00
2019-02-28T20:01:46.413Z,0.90
2019-02-28T20:04:53.628Z,1.10
2019-02-28T20:08:00.916Z,1.60
2019-02-28T20:11:17.517Z,1.63
2019-02-28T20:14:24.800Z,1.20
2019-02-28T20:17:41.584Z,1.50
2019-02-28T20:20:58.333Z,1.50
2019-02-28T20:24:06.665Z,2.20
2019-02-28T20:27:14.076Z,1.17
2019-02-28T20:30:22.503Z,1.67
2019-02-28T20:33:30.123Z,2.47
2019-02-28T20:36:37.339Z,11.17
2019-02-28T20:39:44.644Z,1.23
2019-02-28T20:42:51.846Z,1.30
2019-02-28T20:45:59.070Z,1.00
2019-02-28T20:49:06.371Z,1.10
2019-02-28T20:52:13.876Z,1.20
2019-02-28T20:55:30.369Z,1.13
2019-02-28T20:58:47.064Z,1.50
2019-02-28T21:01:54.272Z,2.10
2019-02-28T21:05:02.588Z,0.97
2019-02-28T21:08:10.001Z,1.57
2019-02-28T21:11:17.264Z,0.90
2019-02-28T21:14:24.745Z,1.60
2019-02-28T21:17:31.942Z,1.50
2019-02-28T21:20:39.260Z,1.27
2019-02-28T21:23:55.825Z,1.40
2019-02-28T21:27:03.065Z,0.97
2019-02-28T21:30:13.572Z,1.13
2019-02-28T21:33:20.777Z,1.10
2019-02-28T21:36:28.059Z,1.37
2019-02-28T21:39:44.803Z,1.20
2019-02-28T21:42:52.012Z,0.90
2019-02-28T21:46:08.751Z,1.30
2019-02-28T21:49:16.046Z,0.80
2019-02-28T21:52:23.339Z,0.70
2019-02-28T21:55:40.029Z,1.80
2019-02-28T21:58:56.774Z,1.67
2019-02-28T22:02:04.077Z,1.30
2019-02-28T22:05:26.813Z,1.33
2019-02-28T22:08:34.007Z,1.97
2019-02-28T22:11:41.128Z,1.10
2019-02-28T22:14:48.379Z,1.60
2019-02-28T22:18:05.130Z,1.13
2019-02-28T22:21:12.290Z,1.17
2019-02-28T22:24:29.034Z,1.70
2019-02-28T22:27:36.344Z,1.20
2019-02-28T22:31:02.539Z,1.50
2019-02-28T22:34:23.080Z,1.30
2019-02-28T22:37:44.214Z,1.20
2019-02-28T22:40:51.458Z,1.83
2019-02-28T22:43:58.634Z,2.47
2019-02-28T22:47:05.986Z,1.83
2019-02-28T22:50:13.145Z,1.80
2019-02-28T22:53:20.282Z,1.80
2019-02-28T22:56:29.230Z,1.67
2019-02-28T22:59:36.283Z,1.30
2019-02-28T23:02:53.158Z,1.37
2019-02-28T23:06:09.956Z,1.77
2019-02-28T23:09:17.087Z,1.70
2019-02-28T23:12:24.388Z,1.80
2019-02-28T23:15:41.047Z,2.80
2019-02-28T23:18:48.195Z,1.93
2019-02-28T23:21:55.520Z,2.30
2019-02-28T23:25:02.687Z,1.47
2019-02-28T23:28:15.353Z,1.60
2019-02-28T23:31:56.415Z,1.50
2019-02-28T23:35:03.981Z,1.77
2019-02-28T23:38:11.126Z,1.77
2019-02-28T23:41:18.474Z,1.40
2019-02-28T23:44:25.609Z,2.63
2019-02-28T23:47:32.761Z,1.87
2019-02-28T23:50:39.984Z,1.40
2019-02-28T23:53:47.650Z,2.53
2019-02-28T23:57:04.293Z,1.90
